createdAt,value
2022-09-01T00:00:50.308Z,17.30
2022-09-01T00:03:23.543Z,17.30
2022-09-01T00:05:57.127Z,17.30
2022-09-01T00:08:25.944Z,17.30
2022-09-01T00:13:23.023Z,17.20
2022-09-01T00:15:52.749Z,17.20
2022-09-01T00:18:21.254Z,17.10
2022-09-01T00:20:49.592Z,17.10
2022-09-01T00:23:17.969Z,17.10
2022-09-01T00:28:14.987Z,17.00
2022-09-01T00:33:13.466Z,16.90
2022-09-01T00:35:43.053Z,16.90
2022-09-01T00:38:11.512Z,16.80
2022-09-01T00:40:40.118Z,16.80
2022-09-01T00:43:24.337Z,16.80
2022-09-01T00:45:52.828Z,16.70
2022-09-01T00:48:23.539Z,16.70
2022-09-01T00:50:54.537Z,16.70
2022-09-01T00:53:23.228Z,16.60
2022-09-01T00:58:20.781Z,16.50
2022-09-01T01:00:52.973Z,16.60
2022-09-01T01:03:24.139Z,16.50
2022-09-01T01:05:58.033Z,16.50
2022-09-01T01:08:33.901Z,16.40
2022-09-01T01:11:03.836Z,16.40
2022-09-01T01:13:51.200Z,16.40
2022-09-01T01:16:20.803Z,16.30
2022-09-01T01:18:50.979Z,16.30
2022-09-01T01:21:43.161Z,16.30
2022-09-01T01:24:24.734Z,16.20
2022-09-01T01:26:53.787Z,16.20
2022-09-01T01:29:22.356Z,16.20
2022-09-01T01:31:53.936Z,16.20
2022-09-01T01:34:23.333Z,16.10
2022-09-01T01:36:53.255Z,16.10
2022-09-01T01:39:26.834Z,16.10
2022-09-01T01:41:59.184Z,16.10
2022-09-01T01:44:29.489Z,16.10
2022-09-01T01:47:08.428Z,16.10
2022-09-01T01:49:39.992Z,16.00
2022-09-01T01:54:38.893Z,16.00
2022-09-01T01:57:08.071Z,16.00
2022-09-01T01:59:38.685Z,16.00
2022-09-01T02:04:40.024Z,15.90
2022-09-01T02:07:13.587Z,15.90
2022-09-01T02:09:48.165Z,15.90
2022-09-01T02:12:19.623Z,15.90
2022-09-01T02:14:48.554Z,15.90
2022-09-01T02:19:47.302Z,15.80
2022-09-01T02:22:15.629Z,15.80
2022-09-01T02:24:49.110Z,15.80
2022-09-01T02:27:25.823Z,15.80
2022-09-01T02:29:55.615Z,15.70
2022-09-01T02:34:56.985Z,15.70
2022-09-01T02:39:57.594Z,15.70
2022-09-01T02:42:27.652Z,15.70
2022-09-01T02:44:56.143Z,15.70
2022-09-01T02:49:55.635Z,15.60
2022-09-01T02:52:23.891Z,15.60
2022-09-01T02:54:52.489Z,15.60
2022-09-01T02:57:24.813Z,15.60
2022-09-01T02:59:53.367Z,15.60
2022-09-01T03:04:52.834Z,15.50
2022-09-01T03:07:21.789Z,15.50
2022-09-01T03:09:50.371Z,15.50
2022-09-01T03:12:19.886Z,15.50
2022-09-01T03:14:49.605Z,15.50
2022-09-01T03:17:17.908Z,15.50
2022-09-01T03:19:46.737Z,15.40
2022-09-01T03:22:15.151Z,15.40
2022-09-01T03:24:43.540Z,15.40
2022-09-01T03:29:41.362Z,15.40
2022-09-01T03:32:11.509Z,15.40
2022-09-01T03:37:09.691Z,15.40
2022-09-01T03:39:38.079Z,15.40
2022-09-01T03:42:08.788Z,15.30
2022-09-01T03:47:15.190Z,15.30
2022-09-01T03:49:45.452Z,15.30
2022-09-01T03:52:14.687Z,15.30
2022-09-01T03:54:43.798Z,15.30
2022-09-01T03:57:13.799Z,15.30
2022-09-01T03:59:45.146Z,15.30
2022-09-01T04:02:16.013Z,15.30
2022-09-01T04:04:44.809Z,15.30
2022-09-01T04:07:13.593Z,15.30
2022-09-01T04:09:47.404Z,15.20
2022-09-01T04:12:15.790Z,15.30
2022-09-01T04:14:48.490Z,15.20
2022-09-01T04:17:35.704Z,15.20
2022-09-01T04:20:09.324Z,15.20
2022-09-01T04:25:08.920Z,15.20
2022-09-01T04:30:11.971Z,15.10
2022-09-01T04:32:46.765Z,15.10
2022-09-01T04:35:17.011Z,15.10
2022-09-01T04:37:48.461Z,15.00
2022-09-01T04:42:46.551Z,15.00
2022-09-01T04:45:20.464Z,15.00
2022-09-01T04:47:51.002Z,15.00
2022-09-01T04:50:22.151Z,15.00
2022-09-01T04:55:44.427Z,15.00
2022-09-01T04:58:17.707Z,15.00
2022-09-01T05:00:49.624Z,15.00
2022-09-01T05:03:24.061Z,15.00
2022-09-01T05:06:06.736Z,15.10
2022-09-01T05:11:09.280Z,15.10
2022-09-01T05:13:45.355Z,15.10
2022-09-01T05:16:22.795Z,15.10
2022-09-01T05:18:57.850Z,15.20
2022-09-01T05:21:30.652Z,15.20
2022-09-01T05:24:04.970Z,15.30
2022-09-01T05:26:34.843Z,15.30
2022-09-01T05:29:10.507Z,15.40
2022-09-01T05:31:39.045Z,15.40
2022-09-01T05:34:09.621Z,15.50
2022-09-01T05:36:43.937Z,15.50
2022-09-01T05:41:42.524Z,15.60
2022-09-01T05:44:11.514Z,15.60
2022-09-01T05:46:42.561Z,15.70
2022-09-01T05:49:18.622Z,15.70
2022-09-01T05:51:52.166Z,15.70
2022-09-01T05:54:27.214Z,15.80
2022-09-01T05:57:12.695Z,15.80
2022-09-01T06:02:27.145Z,15.90
2022-09-01T06:04:59.875Z,15.90
2022-09-01T06:07:33.859Z,15.90
2022-09-01T06:10:03.210Z,15.90
2022-09-01T06:15:01.327Z,16.00
2022-09-01T06:17:30.901Z,16.10
2022-09-01T06:20:10.643Z,16.10
2022-09-01T06:22:41.373Z,16.20
2022-09-01T06:25:11.669Z,16.30
2022-09-01T06:27:44.767Z,16.40
2022-09-01T06:30:23.064Z,16.50
2022-09-01T06:33:09.255Z,16.60
2022-09-01T06:35:40.482Z,16.70
2022-09-01T06:38:10.461Z,16.80
2022-09-01T06:40:42.639Z,16.90
2022-09-01T06:43:17.217Z,16.90
2022-09-01T06:48:25.225Z,17.10
2022-09-01T06:51:21.305Z,17.20
2022-09-01T06:53:59.260Z,17.30
2022-09-01T06:56:33.978Z,17.30
2022-09-01T06:59:15.535Z,17.40
2022-09-01T07:01:48.963Z,17.50
2022-09-01T07:04:20.238Z,17.50
2022-09-01T07:10:21.095Z,17.70
2022-09-01T07:18:31.809Z,18.10
2022-09-01T07:21:35.953Z,18.10
2022-09-01T07:24:11.171Z,18.20
2022-09-01T07:26:47.149Z,18.30
2022-09-01T07:29:17.416Z,18.30
2022-09-01T07:31:50.248Z,18.30
2022-09-01T07:45:59.758Z,18.50
2022-09-01T07:49:02.677Z,18.50
2022-09-01T07:51:38.125Z,18.50
2022-09-01T07:56:40.595Z,18.60
2022-09-01T07:59:14.771Z,18.70
2022-09-01T08:04:35.140Z,18.70
2022-09-01T08:07:05.697Z,18.90
2022-09-01T08:12:14.432Z,19.10
2022-09-01T08:17:51.491Z,19.80
2022-09-01T08:20:21.252Z,20.10
2022-09-01T08:22:54.547Z,20.50
2022-09-01T08:25:26.177Z,20.90
2022-09-01T08:28:00.718Z,21.30
2022-09-01T08:30:30.704Z,21.50
2022-09-01T08:33:10.188Z,21.60
2022-09-01T08:38:10.958Z,21.60
2022-09-01T08:40:41.949Z,21.70
2022-09-01T08:43:23.216Z,21.90
2022-09-01T08:45:55.974Z,21.90
2022-09-01T08:49:23.629Z,22.20
2022-09-01T08:51:32.553Z,23.10
2022-09-01T08:54:11.943Z,23.20
2022-09-01T08:56:41.871Z,24.00
2022-09-01T08:59:15.038Z,24.80
2022-09-01T09:02:21.478Z,25.50
2022-09-01T09:05:22.646Z,26.10
2022-09-01T09:08:29.595Z,26.50
2022-09-01T09:11:05.688Z,29.10
2022-09-01T09:13:49.052Z,27.70
2022-09-01T09:16:25.197Z,27.70
2022-09-01T09:18:58.286Z,27.80
2022-09-01T09:21:30.768Z,27.90
2022-09-01T09:24:07.985Z,27.90
2022-09-01T09:26:44.666Z,28.20
2022-09-01T09:29:13.357Z,28.40
2022-09-01T09:31:46.120Z,28.50
2022-09-01T09:34:32.475Z,28.70
2022-09-01T09:37:18.378Z,28.70
2022-09-01T09:40:01.944Z,28.70
2022-09-01T09:42:34.911Z,28.60
2022-09-01T09:45:06.304Z,28.70
2022-09-01T09:47:44.624Z,28.60
2022-09-01T09:50:24.382Z,27.60
2022-09-01T09:52:55.681Z,27.10
2022-09-01T09:55:28.303Z,26.70
2022-09-01T09:58:01.562Z,26.30
2022-09-01T10:00:33.988Z,26.00
2022-09-01T10:03:10.149Z,25.70
2022-09-01T10:05:45.641Z,25.40
2022-09-01T10:08:37.388Z,25.20
2022-09-01T10:11:08.568Z,25.00
2022-09-01T10:16:14.327Z,24.90
2022-09-01T10:18:46.212Z,25.20
2022-09-01T10:21:18.419Z,25.50
2022-09-01T10:23:46.744Z,25.80
2022-09-01T10:26:23.915Z,26.00
2022-09-01T10:28:59.856Z,26.10
2022-09-01T10:31:32.391Z,26.00
2022-09-01T10:34:05.359Z,25.90
2022-09-01T10:36:37.420Z,25.80
2022-09-01T10:39:11.418Z,25.70
2022-09-01T10:42:00.453Z,25.70
2022-09-01T10:44:34.248Z,25.90
2022-09-01T10:47:13.623Z,25.90
2022-09-01T10:50:07.177Z,26.70
2022-09-01T10:53:00.754Z,26.80
2022-09-01T10:55:48.924Z,26.90
2022-09-01T11:02:28.797Z,26.90
2022-09-01T11:05:17.805Z,26.80
2022-09-01T11:08:14.689Z,26.70
2022-09-01T11:10:55.802Z,26.50
2022-09-01T11:13:49.022Z,26.40
2022-09-01T11:16:50.842Z,26.50
2022-09-01T11:19:45.630Z,27.00
2022-09-01T11:22:34.888Z,27.40
2022-09-01T11:25:39.542Z,27.30
2022-09-01T11:28:44.097Z,27.70
2022-09-01T11:31:26.223Z,28.30
2022-09-01T11:34:05.486Z,28.90
2022-09-01T11:36:37.665Z,29.50
2022-09-01T11:39:30.896Z,29.70
2022-09-01T11:42:05.562Z,29.40
2022-09-01T11:44:40.621Z,29.20
2022-09-01T11:47:17.070Z,29.00
2022-09-01T11:49:53.655Z,28.90
2022-09-01T11:52:26.364Z,28.70
2022-09-01T11:54:55.753Z,28.30
2022-09-01T11:57:28.967Z,28.30
2022-09-01T12:00:01.078Z,27.70
2022-09-01T12:02:33.527Z,27.40
2022-09-01T12:05:28.231Z,27.30
2022-09-01T12:07:57.446Z,27.30
2022-09-01T12:10:34.446Z,27.30
2022-09-01T12:13:08.453Z,27.30
2022-09-01T12:16:00.461Z,27.60
2022-09-01T12:18:32.997Z,27.70
2022-09-01T12:21:04.311Z,27.70
2022-09-01T12:23:36.175Z,27.80
2022-09-01T12:26:08.545Z,27.90
2022-09-01T12:28:41.605Z,27.90
2022-09-01T12:31:19.848Z,28.30
2022-09-01T12:33:49.505Z,28.30
2022-09-01T12:36:27.818Z,28.40
2022-09-01T12:38:57.513Z,28.90
2022-09-01T12:41:36.114Z,29.50
2022-09-01T12:44:31.565Z,29.60
2022-09-01T12:47:04.703Z,29.60
2022-09-01T12:49:47.807Z,29.70
2022-09-01T12:52:27.285Z,30.30
2022-09-01T12:55:47.402Z,30.30
2022-09-01T12:58:05.684Z,30.40
2022-09-01T13:00:36.510Z,30.90
2022-09-01T13:03:15.557Z,30.90
2022-09-01T13:05:47.036Z,30.90
2022-09-01T13:08:19.013Z,31.10
2022-09-01T13:10:53.256Z,30.90
2022-09-01T13:13:24.556Z,30.10
2022-09-01T13:15:57.042Z,30.10
2022-09-01T13:18:28.418Z,30.40
2022-09-01T13:20:58.933Z,30.50
2022-09-01T13:23:27.366Z,31.00
2022-09-01T13:25:55.684Z,31.40
2022-09-01T13:36:48.243Z,32.50
2022-09-01T13:39:18.930Z,32.50
2022-09-01T13:41:47.483Z,32.50
2022-09-01T13:44:17.242Z,32.60
2022-09-01T13:47:28.639Z,32.70
2022-09-01T13:52:24.540Z,31.80
2022-09-01T13:54:52.898Z,31.50
2022-09-01T13:57:21.255Z,31.20
2022-09-01T13:59:49.580Z,31.00
2022-09-01T14:02:18.172Z,30.80
2022-09-01T14:04:48.927Z,30.70
2022-09-01T14:07:18.847Z,30.80
2022-09-01T14:09:47.356Z,30.80
2022-09-01T14:12:15.679Z,31.40
2022-09-01T14:17:32.305Z,32.60
2022-09-01T14:20:02.006Z,32.90
2022-09-01T14:22:31.059Z,32.90
2022-09-01T14:25:00.993Z,32.70
2022-09-01T14:27:29.375Z,32.30
2022-09-01T14:29:57.715Z,31.10
2022-09-01T14:32:27.396Z,30.50
2022-09-01T14:34:56.083Z,30.00
2022-09-01T14:37:26.072Z,29.40
2022-09-01T14:39:57.684Z,28.90
2022-09-01T14:42:28.973Z,28.50
2022-09-01T14:44:57.637Z,28.20
2022-09-01T14:47:26.042Z,28.00
2022-09-01T14:49:54.967Z,28.00
2022-09-01T14:52:23.412Z,27.80
2022-09-01T14:54:53.535Z,27.70
2022-09-01T14:57:36.487Z,27.60
2022-09-01T15:00:12.001Z,27.50
2022-09-01T15:02:43.078Z,27.40
2022-09-01T15:05:13.515Z,27.50
2022-09-01T15:07:43.155Z,27.50
2022-09-01T15:10:23.414Z,27.80
2022-09-01T15:12:55.973Z,28.10
2022-09-01T15:15:25.426Z,28.50
2022-09-01T15:17:54.148Z,29.00
2022-09-01T15:20:41.159Z,29.60
2022-09-01T15:23:10.057Z,29.70
2022-09-01T15:25:40.133Z,30.90
2022-09-01T15:28:09.130Z,30.90
2022-09-01T15:30:38.743Z,31.40
2022-09-01T15:33:13.345Z,31.70
2022-09-01T15:35:44.025Z,31.70
2022-09-01T15:38:17.112Z,31.70
2022-09-01T15:40:57.823Z,31.30
2022-09-01T15:43:28.982Z,31.30
2022-09-01T15:45:59.133Z,31.20
2022-09-01T15:48:29.461Z,31.30
2022-09-01T15:51:27.645Z,31.30
2022-09-01T15:53:59.967Z,31.10
2022-09-01T15:56:31.877Z,30.70
2022-09-01T15:59:01.822Z,30.70
2022-09-01T16:01:33.798Z,30.70
2022-09-01T16:04:03.304Z,31.00
2022-09-01T16:06:32.980Z,31.10
2022-09-01T16:09:01.400Z,30.90
2022-09-01T16:11:31.344Z,30.40
2022-09-01T16:14:01.286Z,26.50
2022-09-01T16:16:45.707Z,30.70
2022-09-01T16:19:34.314Z,30.70
2022-09-01T16:22:14.426Z,30.80
2022-09-01T16:24:45.956Z,30.70
2022-09-01T16:27:20.023Z,30.50
2022-09-01T16:29:51.797Z,30.00
2022-09-01T16:32:23.214Z,29.50
2022-09-01T16:34:53.211Z,29.00
2022-09-01T16:37:42.600Z,28.50
2022-09-01T16:40:29.844Z,28.00
2022-09-01T16:43:09.432Z,27.60
2022-09-01T16:45:48.291Z,27.30
2022-09-01T16:48:24.061Z,26.90
2022-09-01T16:51:03.364Z,26.70
2022-09-01T16:53:52.382Z,26.50
2022-09-01T16:56:31.328Z,26.30
2022-09-01T17:01:55.944Z,26.10
2022-09-01T17:04:35.532Z,25.90
2022-09-01T17:07:10.397Z,25.80
2022-09-01T17:09:42.516Z,25.70
2022-09-01T17:12:30.799Z,25.50
2022-09-01T17:15:10.046Z,25.40
2022-09-01T17:17:45.520Z,25.30
2022-09-01T17:20:16.254Z,25.20
2022-09-01T17:22:52.148Z,25.10
2022-09-01T17:25:32.682Z,25.00
2022-09-01T17:28:06.994Z,24.90
2022-09-01T17:30:47.013Z,24.80
2022-09-01T17:33:26.634Z,24.80
2022-09-01T17:36:18.658Z,24.70
2022-09-01T17:39:01.264Z,24.60
2022-09-01T17:41:40.634Z,24.60
2022-09-01T17:44:21.724Z,24.40
2022-09-01T17:46:59.261Z,24.40
2022-09-01T17:49:38.388Z,24.20
2022-09-01T17:52:16.044Z,24.20
2022-09-01T17:54:54.820Z,24.20
2022-09-01T17:57:33.198Z,24.10
2022-09-01T18:00:07.989Z,24.00
2022-09-01T18:03:15.154Z,24.00
2022-09-01T18:05:48.685Z,23.90
2022-09-01T18:08:30.689Z,23.80
2022-09-01T18:11:02.433Z,23.80
2022-09-01T18:13:52.759Z,23.70
2022-09-01T18:16:25.575Z,23.60
2022-09-01T18:18:58.355Z,23.60
2022-09-01T18:21:33.408Z,23.50
2022-09-01T18:24:15.077Z,23.40
2022-09-01T18:26:48.049Z,23.30
2022-09-01T18:29:17.507Z,23.30
2022-09-01T18:32:04.932Z,23.20
2022-09-01T18:34:56.761Z,23.20
2022-09-01T18:37:33.319Z,23.10
2022-09-01T18:40:14.100Z,23.00
2022-09-01T18:42:50.037Z,22.90
2022-09-01T18:45:33.108Z,22.80
2022-09-01T18:48:13.437Z,22.80
2022-09-01T18:50:54.437Z,22.70
2022-09-01T18:53:35.908Z,22.60
2022-09-01T18:56:17.197Z,22.50
2022-09-01T18:59:05.379Z,22.40
2022-09-01T19:01:36.849Z,22.30
2022-09-01T19:04:17.992Z,22.20
2022-09-01T19:07:01.096Z,22.10
2022-09-01T19:09:34.520Z,22.00
2022-09-01T19:12:17.081Z,22.00
2022-09-01T19:14:56.569Z,21.90
2022-09-01T19:18:05.045Z,21.80
2022-09-01T19:20:44.661Z,21.70
2022-09-01T19:23:20.025Z,21.70
2022-09-01T19:25:49.479Z,21.60
2022-09-01T19:28:25.216Z,21.50
2022-09-01T19:31:03.402Z,21.40
2022-09-01T19:33:39.378Z,21.40
2022-09-01T19:36:12.887Z,21.30
2022-09-01T19:38:42.776Z,21.30
2022-09-01T19:41:19.436Z,21.20
2022-09-01T19:43:53.464Z,21.20
2022-09-01T19:46:31.838Z,21.10
2022-09-01T19:49:10.632Z,21.10
2022-09-01T19:51:50.523Z,21.10
2022-09-01T19:54:30.730Z,21.00
2022-09-01T19:57:09.547Z,21.00
2022-09-01T19:59:51.933Z,20.90
2022-09-01T20:02:30.026Z,20.90
2022-09-01T20:05:10.426Z,20.90
2022-09-01T20:07:45.378Z,20.80
2022-09-01T20:10:34.361Z,20.80
2022-09-01T20:13:25.789Z,20.80
2022-09-01T20:16:02.253Z,20.80
2022-09-01T20:18:37.331Z,20.70
2022-09-01T20:21:19.003Z,20.70
2022-09-01T20:23:56.808Z,20.60
2022-09-01T20:26:36.003Z,20.60
2022-09-01T20:29:15.407Z,20.60
2022-09-01T20:31:50.753Z,20.60
2022-09-01T20:34:30.223Z,20.50
2022-09-01T20:37:07.169Z,20.50
2022-09-01T20:40:01.703Z,20.50
2022-09-01T20:42:43.530Z,20.40
2022-09-01T20:45:17.552Z,20.30
2022-09-01T20:47:51.327Z,20.40
2022-09-01T20:50:24.368Z,20.40
2022-09-01T20:53:15.198Z,20.40
2022-09-01T20:55:53.394Z,20.30
2022-09-01T20:58:34.434Z,20.30
2022-09-01T21:01:18.019Z,20.30
2022-09-01T21:04:02.030Z,20.30
2022-09-01T21:06:49.497Z,20.30
2022-09-01T21:09:29.662Z,20.30
2022-09-01T21:12:07.730Z,20.30
2022-09-01T21:15:00.867Z,20.30
2022-09-01T21:17:48.583Z,20.30
2022-09-01T21:20:31.229Z,20.30
2022-09-01T21:25:32.125Z,20.30
2022-09-01T21:28:03.688Z,20.30
2022-09-01T21:30:35.883Z,20.20
2022-09-01T21:38:01.986Z,20.10
2022-09-01T21:43:03.808Z,20.10
2022-09-01T21:45:34.734Z,20.10
2022-09-01T21:48:04.120Z,20.00
2022-09-01T21:53:01.262Z,19.90
2022-09-01T21:55:30.007Z,19.90
2022-09-01T22:00:30.849Z,19.80
2022-09-01T22:03:01.850Z,19.70
2022-09-01T22:05:33.175Z,19.70
2022-09-01T22:08:02.542Z,19.60
2022-09-01T22:10:31.939Z,19.60
2022-09-01T22:13:03.849Z,19.50
2022-09-01T22:18:02.304Z,19.40
2022-09-01T22:23:02.004Z,19.30
2022-09-01T22:25:32.833Z,19.30
2022-09-01T22:28:02.735Z,19.20
2022-09-01T22:30:31.547Z,19.20
2022-09-01T22:33:02.027Z,19.10
2022-09-01T22:40:27.736Z,19.00
2022-09-01T22:45:24.586Z,18.90
2022-09-01T22:47:52.944Z,18.80
2022-09-01T22:50:22.713Z,18.70
2022-09-01T22:52:50.980Z,18.60
2022-09-01T22:55:19.647Z,18.60
2022-09-01T23:00:17.091Z,18.50
2022-09-01T23:02:45.955Z,18.40
2022-09-01T23:05:14.328Z,18.40
2022-09-01T23:07:44.064Z,18.40
2022-09-01T23:10:12.780Z,18.30
2022-09-01T23:12:41.046Z,18.30
2022-09-01T23:15:10.945Z,18.30
2022-09-01T23:17:39.766Z,18.20
2022-09-01T23:20:12.895Z,18.20
2022-09-01T23:22:43.952Z,18.20
2022-09-01T23:25:14.793Z,18.10
2022-09-01T23:27:44.144Z,18.10
2022-09-01T23:30:16.095Z,18.10
2022-09-01T23:32:44.697Z,18.10
2022-09-01T23:35:13.958Z,18.10
2022-09-01T23:37:46.140Z,18.10
2022-09-01T23:40:14.575Z,18.00
2022-09-01T23:45:12.707Z,18.00
2022-09-01T23:47:41.123Z,18.00
2022-09-01T23:50:10.699Z,17.90
2022-09-01T23:52:39.418Z,17.90
2022-09-01T23:55:10.553Z,17.80
2022-09-01T23:57:38.965Z,17.80
